createdAt,value
2018-11-01T00:02:23.783Z,6.00
2018-11-01T00:04:52.474Z,5.90
2018-11-01T00:07:21.183Z,5.90
2018-11-01T00:09:49.877Z,5.90
2018-11-01T00:12:18.595Z,5.80
2018-11-01T00:14:47.310Z,5.80
2018-11-01T00:17:16.010Z,5.80
2018-11-01T00:19:44.706Z,5.80
2018-11-01T00:22:13.423Z,5.80
2018-11-01T00:24:42.118Z,5.80
2018-11-01T00:27:10.853Z,5.80
2018-11-01T00:29:39.555Z,5.70
2018-11-01T00:32:08.263Z,5.80
2018-11-01T00:34:36.959Z,5.80
2018-11-01T00:37:05.668Z,5.80
2018-11-01T00:39:34.370Z,5.70
2018-11-01T00:42:03.079Z,5.60
2018-11-01T00:44:31.784Z,5.60
2018-11-01T00:47:00.490Z,5.60
2018-11-01T00:49:29.191Z,5.50
2018-11-01T00:51:57.890Z,5.50
2018-11-01T00:54:26.596Z,5.40
2018-11-01T00:56:55.303Z,5.40
2018-11-01T00:59:24.094Z,5.30
2018-11-01T01:01:52.790Z,5.30
2018-11-01T01:04:21.487Z,5.20
2018-11-01T01:06:50.175Z,5.10
2018-11-01T01:09:18.886Z,5.10
2018-11-01T01:11:47.650Z,5.10
2018-11-01T01:14:16.376Z,5.00
2018-11-01T01:16:45.070Z,5.10
2018-11-01T01:19:13.768Z,5.10
2018-11-01T01:21:42.462Z,5.00
2018-11-01T01:24:11.174Z,4.90
2018-11-01T01:26:39.870Z,4.90
2018-11-01T01:29:08.571Z,4.80
2018-11-01T01:31:37.291Z,4.80
2018-11-01T01:34:06.440Z,4.70
2018-11-01T01:36:35.124Z,4.80
2018-11-01T01:39:04.999Z,4.70
2018-11-01T01:41:33.708Z,4.70
2018-11-01T01:44:02.404Z,4.60
2018-11-01T01:46:31.106Z,4.60
2018-11-01T01:48:59.812Z,4.60
2018-11-01T01:51:28.522Z,4.60
2018-11-01T01:53:57.234Z,4.60
2018-11-01T01:56:25.917Z,4.60
2018-11-01T01:58:54.664Z,4.50
2018-11-01T02:01:23.346Z,4.50
2018-11-01T02:03:52.068Z,4.50
2018-11-01T02:06:20.828Z,4.50
2018-11-01T02:08:49.510Z,4.50
2018-11-01T02:11:18.213Z,4.40
2018-11-01T02:13:46.904Z,4.40
2018-11-01T02:16:15.607Z,4.40
2018-11-01T02:18:44.291Z,4.40
2018-11-01T02:21:12.997Z,4.40
2018-11-01T02:23:41.697Z,4.40
2018-11-01T02:26:10.387Z,4.40
2018-11-01T02:28:39.092Z,4.40
2018-11-01T02:31:07.804Z,4.40
2018-11-01T02:33:36.496Z,4.40
2018-11-01T02:36:05.201Z,4.40
2018-11-01T02:38:33.919Z,4.40
2018-11-01T02:41:02.596Z,4.40
2018-11-01T02:43:31.282Z,4.40
2018-11-01T02:46:01.015Z,4.40
2018-11-01T02:48:29.829Z,4.50
2018-11-01T02:50:58.538Z,4.50
2018-11-01T02:53:27.252Z,4.50
2018-11-01T02:55:55.932Z,4.40
2018-11-01T02:58:24.630Z,4.50
2018-11-01T03:00:53.333Z,4.50
2018-11-01T03:03:22.027Z,4.50
2018-11-01T03:05:50.737Z,4.60
2018-11-01T03:08:19.444Z,4.60
2018-11-01T03:10:48.128Z,4.60
2018-11-01T03:13:16.870Z,4.60
2018-11-01T03:15:45.552Z,4.70
2018-11-01T03:18:14.251Z,4.70
2018-11-01T03:20:43.055Z,4.70
2018-11-01T03:23:11.743Z,4.70
2018-11-01T03:25:40.489Z,4.70
2018-11-01T03:28:09.172Z,4.70
2018-11-01T03:30:37.881Z,4.70
2018-11-01T03:33:06.576Z,4.70
2018-11-01T03:35:35.329Z,4.70
2018-11-01T03:38:04.041Z,4.80
2018-11-01T03:40:32.749Z,4.70
2018-11-01T03:43:01.432Z,4.80
2018-11-01T03:45:30.144Z,4.80
2018-11-01T03:47:58.839Z,4.80
2018-11-01T03:50:27.549Z,4.80
2018-11-01T03:52:56.247Z,4.80
2018-11-01T03:55:24.942Z,4.70
2018-11-01T03:57:53.627Z,4.60
2018-11-01T04:00:22.344Z,4.60
2018-11-01T04:02:51.021Z,4.50
2018-11-01T04:05:19.724Z,4.40
2018-11-01T04:07:48.415Z,4.40
2018-11-01T04:10:17.167Z,4.40
2018-11-01T04:12:45.854Z,4.30
2018-11-01T04:15:14.981Z,4.40
2018-11-01T04:17:43.632Z,4.30
2018-11-01T04:20:13.326Z,4.30
2018-11-01T04:22:42.602Z,4.30
2018-11-01T04:25:11.312Z,4.30
2018-11-01T04:27:40.050Z,4.20
2018-11-01T04:30:09.023Z,4.20
2018-11-01T04:32:37.754Z,4.20
2018-11-01T04:35:07.009Z,4.20
2018-11-01T04:37:35.664Z,4.20
2018-11-01T04:40:04.517Z,4.20
2018-11-01T04:42:33.167Z,4.20
2018-11-01T04:45:01.828Z,4.20
2018-11-01T04:47:30.590Z,4.20
2018-11-01T04:49:59.154Z,4.20
2018-11-01T04:52:27.824Z,4.10
2018-11-01T04:54:56.480Z,4.10
2018-11-01T04:57:25.139Z,4.10
2018-11-01T04:59:53.812Z,4.10
2018-11-01T05:02:22.458Z,4.10
2018-11-01T05:04:51.206Z,4.10
2018-11-01T05:07:19.785Z,4.00
2018-11-01T05:09:48.439Z,4.00
2018-11-01T05:12:17.114Z,4.10
2018-11-01T05:14:45.789Z,4.10
2018-11-01T05:17:14.436Z,4.20
2018-11-01T05:19:43.096Z,4.20
2018-11-01T05:22:11.755Z,4.20
2018-11-01T05:24:40.441Z,4.20
2018-11-01T05:27:09.088Z,4.10
2018-11-01T05:29:37.767Z,4.00
2018-11-01T05:32:06.412Z,3.90
2018-11-01T05:34:35.082Z,3.80
2018-11-01T05:37:03.770Z,3.80
2018-11-01T05:39:32.655Z,3.70
2018-11-01T05:42:01.294Z,3.60
2018-11-01T05:44:29.950Z,3.60
2018-11-01T05:46:58.691Z,3.60
2018-11-01T05:49:27.392Z,3.60
2018-11-01T05:51:56.077Z,3.60
2018-11-01T05:54:24.716Z,3.50
2018-11-01T05:56:53.424Z,3.40
2018-11-01T05:59:22.104Z,3.40
2018-11-01T06:01:53.635Z,3.40
2018-11-01T06:04:22.309Z,3.30
2018-11-01T06:06:50.976Z,3.30
2018-11-01T06:09:25.268Z,3.30
2018-11-01T06:11:53.932Z,3.30
2018-11-01T06:14:22.591Z,3.30
2018-11-01T06:16:51.331Z,3.20
2018-11-01T06:19:20.026Z,3.30
2018-11-01T06:21:48.707Z,3.30
2018-11-01T06:24:17.506Z,3.30
2018-11-01T06:26:46.203Z,3.30
2018-11-01T06:29:14.862Z,3.40
2018-11-01T06:31:43.540Z,3.50
2018-11-01T06:35:16.255Z,3.70
2018-11-01T06:37:44.959Z,3.90
2018-11-01T06:40:13.649Z,4.20
2018-11-01T06:42:42.298Z,4.60
2018-11-01T06:45:10.987Z,5.10
2018-11-01T06:47:39.676Z,5.50
2018-11-01T06:50:08.359Z,5.80
2018-11-01T06:52:37.033Z,6.10
2018-11-01T06:55:07.364Z,6.20
2018-11-01T06:57:36.030Z,6.20
2018-11-01T07:00:05.749Z,6.20
2018-11-01T07:02:34.415Z,5.90
2018-11-01T07:05:03.108Z,5.60
2018-11-01T07:07:31.769Z,5.40
2018-11-01T07:10:00.438Z,5.20
2018-11-01T07:12:29.104Z,5.10
2018-11-01T07:14:57.773Z,5.00
2018-11-01T07:17:26.578Z,5.00
2018-11-01T07:19:55.084Z,5.00
2018-11-01T07:22:23.760Z,5.10
2018-11-01T07:24:52.572Z,5.20
2018-11-01T07:27:21.244Z,5.20
2018-11-01T07:29:49.920Z,5.20
2018-11-01T07:32:18.588Z,5.20
2018-11-01T07:34:47.267Z,5.20
2018-11-01T07:37:16.024Z,5.20
2018-11-01T07:39:44.734Z,5.30
2018-11-01T07:42:13.374Z,5.40
2018-11-01T07:44:42.051Z,5.50
2018-11-01T07:47:10.725Z,5.60
2018-11-01T07:49:39.400Z,5.80
2018-11-01T07:52:08.096Z,6.00
2018-11-01T07:54:36.759Z,6.20
2018-11-01T07:57:05.743Z,6.40
2018-11-01T07:59:34.405Z,6.60
2018-11-01T08:02:03.081Z,6.80
2018-11-01T08:04:31.760Z,7.10
2018-11-01T08:07:00.476Z,7.40
2018-11-01T08:09:29.128Z,7.60
2018-11-01T08:11:57.823Z,7.80
2018-11-01T08:14:26.508Z,8.00
2018-11-01T08:16:55.173Z,8.10
2018-11-01T08:19:23.896Z,8.30
2018-11-01T08:21:52.755Z,8.50
2018-11-01T08:24:21.413Z,8.60
2018-11-01T08:26:50.071Z,8.70
2018-11-01T08:29:18.830Z,8.80
2018-11-01T08:31:47.495Z,8.90
2018-11-01T08:34:16.152Z,9.00
2018-11-01T08:36:44.826Z,9.20
2018-11-01T08:39:13.666Z,9.20
2018-11-01T08:41:42.311Z,9.40
2018-11-01T08:44:11.031Z,9.70
2018-11-01T08:46:39.722Z,9.90
2018-11-01T08:49:08.465Z,10.20
2018-11-01T08:51:37.107Z,10.50
2018-11-01T08:54:05.790Z,10.80
2018-11-01T08:56:34.478Z,10.80
2018-11-01T08:59:03.190Z,10.90
2018-11-01T09:01:31.982Z,11.50
2018-11-01T09:04:00.673Z,12.30
2018-11-01T09:06:29.324Z,13.00
2018-11-01T09:08:58.005Z,13.50
2018-11-01T09:11:26.703Z,14.00
2018-11-01T09:13:55.395Z,14.20
2018-11-01T09:16:24.073Z,14.50
2018-11-01T09:18:52.920Z,14.50
2018-11-01T09:21:21.596Z,14.00
2018-11-01T09:23:50.275Z,12.80
2018-11-01T09:26:18.958Z,12.00
2018-11-01T09:28:47.620Z,11.80
2018-11-01T09:31:16.293Z,11.60
2018-11-01T09:33:44.964Z,11.80
2018-11-01T09:36:13.632Z,11.40
2018-11-01T09:38:42.308Z,11.00
2018-11-01T09:41:10.981Z,10.70
2018-11-01T09:43:39.659Z,10.70
2018-11-01T09:46:08.419Z,10.80
2018-11-01T09:48:37.008Z,10.80
2018-11-01T09:51:05.871Z,10.50
2018-11-01T09:53:34.555Z,10.20
2018-11-01T09:56:03.317Z,10.10
2018-11-01T09:58:31.891Z,10.30
2018-11-01T10:01:00.577Z,10.50
2018-11-01T10:03:29.237Z,10.60
2018-11-01T10:05:57.956Z,10.60
2018-11-01T10:08:26.581Z,10.50
2018-11-01T10:10:55.251Z,10.60
2018-11-01T10:13:23.926Z,10.70
2018-11-01T10:15:52.678Z,10.70
2018-11-01T10:18:21.786Z,11.00
2018-11-01T10:20:49.947Z,11.30
2018-11-01T10:23:19.660Z,11.60
2018-11-01T10:25:48.351Z,11.70
2018-11-01T10:28:17.038Z,11.60
2018-11-01T10:30:45.701Z,11.50
2018-11-01T10:33:14.384Z,11.30
2018-11-01T10:35:43.277Z,11.20
2018-11-01T10:38:12.004Z,11.20
2018-11-01T10:40:40.670Z,11.00
2018-11-01T10:43:09.352Z,11.00
2018-11-01T10:45:38.075Z,11.00
2018-11-01T10:48:06.744Z,10.90
2018-11-01T10:50:35.431Z,10.80
2018-11-01T10:53:04.129Z,10.60
2018-11-01T10:55:32.896Z,10.70
2018-11-01T10:58:01.564Z,10.70
2018-11-01T11:01:36.286Z,10.60
2018-11-01T11:04:05.817Z,10.70
2018-11-01T11:06:34.533Z,10.70
2018-11-01T11:09:04.804Z,10.80
2018-11-01T11:11:33.480Z,10.70
2018-11-01T11:14:02.165Z,10.60
2018-11-01T11:16:30.843Z,10.60
2018-11-01T11:18:59.527Z,10.60
2018-11-01T11:21:28.196Z,10.50
2018-11-01T11:23:56.932Z,10.40
2018-11-01T11:26:25.625Z,10.30
2018-11-01T11:28:54.304Z,10.20
2018-11-01T11:31:22.993Z,10.20
2018-11-01T11:33:51.698Z,10.10
2018-11-01T11:36:20.381Z,10.20
2018-11-01T11:38:49.090Z,10.30
2018-11-01T11:41:17.838Z,10.40
2018-11-01T11:43:46.522Z,10.30
2018-11-01T11:46:15.211Z,10.40
2018-11-01T11:48:43.879Z,10.40
2018-11-01T11:51:12.602Z,10.60
2018-11-01T11:53:41.240Z,10.70
2018-11-01T11:56:09.911Z,10.90
2018-11-01T11:58:38.584Z,11.00
2018-11-01T12:01:07.255Z,11.10
2018-11-01T12:03:35.932Z,11.00
2018-11-01T12:06:04.951Z,10.90
2018-11-01T12:08:33.559Z,11.00
2018-11-01T12:11:02.232Z,11.10
2018-11-01T12:13:30.899Z,11.10
2018-11-01T12:15:59.564Z,11.10
2018-11-01T12:18:28.240Z,11.10
2018-11-01T12:20:56.940Z,11.10
2018-11-01T12:23:25.647Z,11.00
2018-11-01T12:25:54.319Z,10.90
2018-11-01T12:28:23.039Z,10.90
2018-11-01T12:30:51.661Z,11.10
2018-11-01T12:33:20.339Z,11.30
2018-11-01T12:35:49.051Z,11.70
2018-11-01T12:38:17.717Z,11.80
2018-11-01T12:40:46.888Z,11.70
2018-11-01T12:43:15.572Z,11.60
2018-11-01T12:45:44.344Z,11.60
2018-11-01T12:48:12.983Z,11.60
2018-11-01T12:50:41.672Z,11.70
2018-11-01T12:53:10.368Z,11.80
2018-11-01T12:55:39.083Z,11.60
2018-11-01T12:58:07.740Z,11.40
2018-11-01T13:00:36.445Z,11.40
2018-11-01T13:03:05.094Z,11.40
2018-11-01T13:05:33.764Z,11.50
2018-11-01T13:08:02.443Z,11.40
2018-11-01T13:10:31.111Z,11.30
2018-11-01T13:13:00.084Z,11.30
2018-11-01T13:15:28.743Z,11.20
2018-11-01T13:17:57.441Z,11.20
2018-11-01T13:20:26.106Z,11.20
2018-11-01T13:22:54.776Z,11.30
2018-11-01T13:25:23.447Z,11.40
2018-11-01T13:27:52.118Z,11.30
2018-11-01T13:30:20.794Z,11.30
2018-11-01T13:32:49.464Z,11.30
2018-11-01T13:35:18.202Z,11.20
2018-11-01T13:37:46.799Z,11.40
2018-11-01T13:40:15.776Z,11.40
2018-11-01T13:42:44.135Z,11.50
2018-11-01T13:45:12.806Z,11.60
2018-11-01T13:47:41.520Z,11.70
2018-11-01T13:50:11.265Z,11.90
2018-11-01T13:52:40.137Z,12.10
2018-11-01T13:55:10.289Z,12.20
2018-11-01T13:57:38.986Z,12.30
2018-11-01T14:00:08.691Z,12.40
2018-11-01T14:02:37.361Z,12.50
2018-11-01T14:05:07.610Z,12.50
2018-11-01T14:07:36.482Z,12.50
2018-11-01T14:10:06.504Z,12.30
2018-11-01T14:12:35.211Z,12.10
2018-11-01T14:15:04.260Z,11.90
2018-11-01T14:17:32.726Z,11.90
2018-11-01T14:20:01.400Z,11.80
2018-11-01T14:22:30.068Z,11.70
2018-11-01T14:24:58.771Z,11.60
2018-11-01T14:27:27.444Z,11.60
2018-11-01T14:29:56.107Z,11.60
2018-11-01T14:32:24.777Z,11.50
2018-11-01T14:34:53.466Z,11.50
2018-11-01T14:37:22.165Z,11.50
2018-11-01T14:39:50.817Z,11.50
2018-11-01T14:42:19.491Z,11.50
2018-11-01T14:44:48.175Z,11.50
2018-11-01T14:47:16.843Z,11.50
2018-11-01T14:49:45.520Z,11.50
2018-11-01T14:52:14.719Z,11.40
2018-11-01T14:54:43.758Z,11.40
2018-11-01T14:57:13.107Z,11.30
2018-11-01T14:59:41.471Z,11.30
2018-11-01T15:02:09.077Z,11.20
2018-11-01T15:04:37.752Z,11.10
2018-11-01T15:07:06.466Z,11.10
2018-11-01T15:09:35.102Z,11.10
2018-11-01T15:12:03.793Z,11.10
2018-11-01T15:14:32.497Z,11.20
2018-11-01T15:17:01.200Z,11.20
2018-11-01T15:19:30.811Z,11.10
2018-11-01T15:21:59.489Z,11.00
2018-11-01T15:24:28.156Z,10.90
2018-11-01T15:26:56.818Z,10.80
2018-11-01T15:29:25.494Z,10.70
2018-11-01T15:31:54.154Z,10.70
2018-11-01T15:34:22.828Z,10.70
2018-11-01T15:36:51.579Z,10.80
2018-11-01T15:39:20.257Z,10.80
2018-11-01T15:41:48.929Z,10.70
2018-11-01T15:44:17.603Z,10.70
2018-11-01T15:46:46.268Z,10.70
2018-11-01T15:49:15.165Z,10.70
2018-11-01T15:51:43.897Z,10.70
2018-11-01T15:54:12.602Z,10.70
2018-11-01T15:56:41.268Z,10.70
2018-11-01T15:59:10.123Z,10.60
2018-11-01T16:01:38.813Z,10.50
2018-11-01T16:04:07.670Z,10.40
2018-11-01T16:06:36.233Z,10.30
2018-11-01T16:09:08.392Z,10.20
2018-11-01T16:11:37.180Z,10.00
2018-11-01T16:14:06.110Z,10.00
2018-11-01T16:16:34.780Z,9.90
2018-11-01T16:19:03.607Z,9.90
2018-11-01T16:21:32.279Z,9.90
2018-11-01T16:24:00.935Z,9.90
2018-11-01T16:26:29.621Z,9.80
2018-11-01T16:28:58.298Z,9.80
2018-11-01T16:31:26.948Z,9.80
2018-11-01T16:33:55.596Z,9.70
2018-11-01T16:36:24.331Z,9.60
2018-11-01T16:38:52.939Z,9.50
2018-11-01T16:41:21.598Z,9.40
2018-11-01T16:43:50.584Z,9.30
2018-11-01T16:46:19.668Z,9.10
2018-11-01T16:48:48.347Z,9.10
2018-11-01T16:51:17.021Z,9.00
2018-11-01T16:53:45.684Z,8.90
2018-11-01T16:56:14.379Z,8.80
2018-11-01T16:58:43.033Z,8.70
2018-11-01T17:01:11.715Z,8.70
2018-11-01T17:03:40.395Z,8.70
2018-11-01T17:06:09.077Z,8.70
2018-11-01T17:08:37.771Z,8.70
2018-11-01T17:11:06.404Z,8.80
2018-11-01T17:13:35.064Z,8.80
2018-11-01T17:16:03.814Z,9.00
2018-11-01T17:18:32.468Z,9.00
2018-11-01T17:21:01.140Z,9.00
2018-11-01T17:23:29.805Z,9.00
2018-11-01T17:25:58.470Z,9.00
2018-11-01T17:28:27.136Z,9.30
2018-11-01T17:30:55.794Z,9.50
2018-11-01T17:33:24.456Z,9.70
2018-11-01T17:35:53.103Z,9.90
2018-11-01T17:38:21.789Z,10.10
2018-11-01T17:40:50.466Z,10.20
2018-11-01T17:43:19.292Z,10.30
2018-11-01T17:45:47.961Z,10.40
2018-11-01T17:48:16.570Z,10.40
2018-11-01T17:50:45.259Z,10.40
2018-11-01T17:53:13.909Z,10.50
2018-11-01T17:55:42.577Z,10.40
2018-11-01T17:58:12.224Z,10.40
2018-11-01T18:00:40.837Z,10.40
2018-11-01T18:03:09.552Z,10.40
2018-11-01T18:05:38.209Z,10.40
2018-11-01T18:08:06.965Z,10.40
2018-11-01T18:10:35.603Z,10.30
2018-11-01T18:13:04.235Z,10.30
2018-11-01T18:15:32.897Z,10.30
2018-11-01T18:18:01.743Z,10.30
2018-11-01T18:20:30.405Z,10.30
2018-11-01T18:22:59.116Z,10.30
2018-11-01T18:25:27.849Z,10.20
2018-11-01T18:27:56.456Z,10.30
2018-11-01T18:30:25.201Z,10.20
2018-11-01T18:32:53.998Z,10.20
2018-11-01T18:35:22.482Z,10.20
2018-11-01T18:37:51.169Z,10.20
2018-11-01T18:40:19.830Z,10.10
2018-11-01T18:42:48.517Z,10.10
2018-11-01T18:45:17.188Z,10.10
2018-11-01T18:47:45.895Z,10.10
2018-11-01T18:50:15.860Z,10.00
2018-11-01T18:52:44.744Z,10.00
2018-11-01T18:55:13.486Z,10.00
2018-11-01T18:57:42.192Z,10.00
2018-11-01T19:00:13.213Z,10.00
2018-11-01T19:02:42.065Z,10.00
2018-11-01T19:05:11.357Z,9.90
2018-11-01T19:07:40.462Z,9.90
2018-11-01T19:10:10.001Z,9.80
2018-11-01T19:12:38.705Z,9.70
2018-11-01T19:15:08.524Z,9.70
2018-11-01T19:17:37.972Z,9.70
2018-11-01T19:20:07.348Z,9.60
2018-11-01T19:22:36.264Z,9.60
2018-11-01T19:25:05.252Z,9.60
2018-11-01T19:27:34.291Z,9.60
2018-11-01T19:30:02.926Z,9.50
2018-11-01T19:32:31.731Z,9.50
2018-11-01T19:35:00.628Z,9.50
2018-11-01T19:37:29.749Z,9.40
2018-11-01T19:39:58.722Z,9.40
2018-11-01T19:42:27.553Z,9.40
2018-11-01T19:44:56.253Z,9.40
2018-11-01T19:47:24.958Z,9.30
2018-11-01T19:49:53.672Z,9.30
2018-11-01T19:52:22.399Z,9.30
2018-11-01T19:54:51.217Z,9.30
2018-11-01T19:57:19.821Z,9.30
2018-11-01T19:59:48.531Z,9.30
2018-11-01T20:02:17.291Z,9.20
2018-11-01T20:04:45.947Z,9.20
2018-11-01T20:07:14.633Z,9.10
2018-11-01T20:09:43.337Z,9.00
2018-11-01T20:12:12.061Z,9.00
2018-11-01T20:14:40.814Z,9.00
2018-11-01T20:17:09.505Z,9.10
2018-11-01T20:19:38.253Z,8.90
2018-11-01T20:22:06.954Z,8.90
2018-11-01T20:24:36.049Z,8.90
2018-11-01T20:27:05.317Z,8.90
2018-11-01T20:29:34.014Z,8.90
2018-11-01T20:32:02.739Z,8.80
2018-11-01T20:34:31.418Z,8.80
2018-11-01T20:37:00.120Z,8.80
2018-11-01T20:39:28.833Z,8.80
2018-11-01T20:41:57.506Z,8.80
2018-11-01T20:44:26.229Z,8.80
2018-11-01T20:46:54.914Z,8.80
2018-11-01T20:49:23.658Z,8.80
2018-11-01T20:51:53.173Z,8.80
2018-11-01T20:54:21.882Z,8.80
2018-11-01T20:56:50.583Z,8.70
2018-11-01T20:59:19.294Z,8.70
2018-11-01T21:01:48.008Z,8.70
2018-11-01T21:04:16.703Z,8.70
2018-11-01T21:06:45.394Z,8.70
2018-11-01T21:09:14.089Z,8.80
2018-11-01T21:11:43.001Z,8.80
2018-11-01T21:14:11.590Z,8.80
2018-11-01T21:16:40.309Z,8.80
2018-11-01T21:19:09.021Z,8.70
2018-11-01T21:21:37.861Z,8.80
2018-11-01T21:24:06.541Z,8.70
2018-11-01T21:26:35.618Z,8.60
2018-11-01T21:29:04.494Z,8.50
2018-11-01T21:31:33.106Z,8.40
2018-11-01T21:34:01.812Z,8.30
2018-11-01T21:36:30.460Z,8.20
2018-11-01T21:38:59.112Z,8.20
2018-11-01T21:41:27.764Z,8.10
2018-11-01T21:43:56.555Z,8.10
2018-11-01T21:46:25.220Z,8.10
2018-11-01T21:48:53.913Z,8.20
2018-11-01T21:51:22.612Z,8.20
2018-11-01T21:53:51.293Z,8.10
2018-11-01T21:56:19.940Z,8.10
2018-11-01T21:58:48.635Z,8.00
2018-11-01T22:01:17.307Z,7.90
2018-11-01T22:03:46.308Z,7.90
2018-11-01T22:06:15.289Z,7.80
2018-11-01T22:08:43.959Z,7.80
2018-11-01T22:11:12.628Z,7.80
2018-11-01T22:13:41.324Z,7.70
2018-11-01T22:16:10.015Z,7.70
2018-11-01T22:18:38.803Z,7.70
2018-11-01T22:21:07.474Z,7.70
2018-11-01T22:23:36.258Z,7.60
2018-11-01T22:26:05.102Z,7.60
2018-11-01T22:28:33.820Z,7.60
2018-11-01T22:31:02.488Z,7.70
2018-11-01T22:33:31.169Z,7.70
2018-11-01T22:35:59.869Z,7.60
2018-11-01T22:38:28.570Z,7.60
2018-11-01T22:40:57.200Z,7.50
2018-11-01T22:43:25.912Z,7.50
2018-11-01T22:45:54.589Z,7.40
2018-11-01T22:48:23.260Z,7.30
2018-11-01T22:50:51.980Z,7.20
2018-11-01T22:53:20.633Z,7.20
2018-11-01T22:55:49.318Z,7.30
2018-11-01T22:58:17.978Z,7.20
2018-11-01T23:00:46.636Z,7.20
2018-11-01T23:03:15.305Z,7.10
2018-11-01T23:05:43.969Z,7.10
2018-11-01T23:08:12.645Z,7.00
2018-11-01T23:10:41.340Z,6.90
2018-11-01T23:13:09.982Z,7.00
2018-11-01T23:15:38.653Z,7.00
2018-11-01T23:18:07.320Z,7.00
2018-11-01T23:20:35.980Z,7.00
2018-11-01T23:23:05.157Z,7.00
2018-11-01T23:25:33.833Z,7.10
2018-11-01T23:28:02.484Z,7.20
2018-11-01T23:30:31.157Z,7.30
2018-11-01T23:32:59.929Z,7.40
2018-11-01T23:35:28.492Z,7.60
2018-11-01T23:38:02.597Z,7.60
2018-11-01T23:40:36.684Z,7.50
2018-11-01T23:43:10.872Z,7.60
2018-11-01T23:45:44.804Z,7.60
2018-11-01T23:48:12.794Z,7.60
2018-11-01T23:50:42.369Z,7.50
2018-11-01T23:53:16.916Z,7.30
2018-11-01T23:55:45.896Z,7.30
2018-11-01T23:58:14.708Z,7.30
